sensor_id;sensor_type;location;lat;lon;timestamp;pressure;altitude;pressure_sealevel;temperature;humidity
39681;BME280;26327;42.550;23.120;2023-07-13T00:02:16;93240.75;;;19.81;100.00
39681;BME280;26327;42.550;23.120;2023-07-13T00:04:42;93216.19;;;19.69;100.00
39681;BME280;26327;42.550;23.120;2023-07-13T00:07:08;93207.06;;;19.95;100.00
39681;BME280;26327;42.550;23.120;2023-07-13T00:09:33;93142.50;;;19.86;98.72
39681;BME280;26327;42.550;23.120;2023-07-13T00:11:59;93180.09;;;20.28;97.44
39681;BME280;26327;42.550;23.120;2023-07-13T00:14:27;93223.94;;;20.64;96.50
39681;BME280;26327;42.550;23.120;2023-07-13T00:16:53;93158.22;;;19.39;100.00
39681;BME280;26327;42.550;23.120;2023-07-13T00:19:18;93141.81;;;19.55;100.00
39681;BME280;26327;42.550;23.120;2023-07-13T00:25:05;93169.53;;;20.63;93.98
39681;BME280;26327;42.550;23.120;2023-07-13T00:30:53;93191.28;;;20.41;94.66
39681;BME280;26327;42.550;23.120;2023-07-13T00:33:19;93203.97;;;20.33;95.76
39681;BME280;26327;42.550;23.120;2023-07-13T00:35:44;93072.25;;;19.56;95.39
39681;BME280;26327;42.550;23.120;2023-07-13T00:38:10;93116.81;;;19.69;95.94
39681;BME280;26327;42.550;23.120;2023-07-13T00:40:35;93137.44;;;19.84;95.63
39681;BME280;26327;42.550;23.120;2023-07-13T00:43:01;93172.69;;;19.90;96.98
39681;BME280;26327;42.550;23.120;2023-07-13T00:47:52;93193.53;;;19.91;97.66
39681;BME280;26327;42.550;23.120;2023-07-13T00:50:19;93198.25;;;19.89;98.17
39681;BME280;26327;42.550;23.120;2023-07-13T00:52:49;93193.53;;;20.03;97.05
39681;BME280;26327;42.550;23.120;2023-07-13T00:55:16;93186.97;;;19.82;97.87
39681;BME280;26327;42.550;23.120;2023-07-13T00:57:43;93118.53;;;19.10;99.17
39681;BME280;26327;42.550;23.120;2023-07-13T01:00:09;93096.41;;;19.00;99.14
39681;BME280;26327;42.550;23.120;2023-07-13T01:02:37;93195.78;;;19.53;99.75
39681;BME280;26327;42.550;23.120;2023-07-13T01:05:14;93121.38;;;19.50;98.07
39681;BME280;26327;42.550;23.120;2023-07-13T01:07:41;93183.88;;;19.85;98.84
39681;BME280;26327;42.550;23.120;2023-07-13T01:10:07;93120.16;;;19.53;98.15
39681;BME280;26327;42.550;23.120;2023-07-13T01:12:33;93202.38;;;20.08;98.22
39681;BME280;26327;42.550;23.120;2023-07-13T01:15:00;93175.88;;;19.92;97.35
39681;BME280;26327;42.550;23.120;2023-07-13T01:17:28;93121.28;;;19.69;96.67
39681;BME280;26327;42.550;23.120;2023-07-13T01:19:54;93121.78;;;19.36;98.73
39681;BME280;26327;42.550;23.120;2023-07-13T01:22:19;93139.16;;;19.13;100.00
39681;BME280;26327;42.550;23.120;2023-07-13T01:24:50;93203.00;;;19.39;100.00
39681;BME280;26327;42.550;23.120;2023-07-13T01:27:20;93192.09;;;19.24;100.00
39681;BME280;26327;42.550;23.120;2023-07-13T01:29:46;93173.16;;;18.85;100.00
39681;BME280;26327;42.550;23.120;2023-07-13T01:32:22;93129.28;;;19.50;100.00
39681;BME280;26327;42.550;23.120;2023-07-13T01:34:50;93197.22;;;19.90;99.51
39681;BME280;26327;42.550;23.120;2023-07-13T01:37:16;93114.72;;;19.48;99.42
39681;BME280;26327;42.550;23.120;2023-07-13T01:39:42;93172.28;;;19.63;100.00
39681;BME280;26327;42.550;23.120;2023-07-13T01:42:07;93151.22;;;19.33;100.00
39681;BME280;26327;42.550;23.120;2023-07-13T01:44:33;93097.03;;;18.83;100.00
39681;BME280;26327;42.550;23.120;2023-07-13T01:46:58;93148.34;;;19.23;100.00
39681;BME280;26327;42.550;23.120;2023-07-13T01:49:24;93144.84;;;19.40;100.00
39681;BME280;26327;42.550;23.120;2023-07-13T01:51:49;93164.94;;;19.53;100.00
39681;BME280;26327;42.550;23.120;2023-07-13T01:54:15;93157.75;;;19.72;99.33
39681;BME280;26327;42.550;23.120;2023-07-13T01:56:40;93119.59;;;19.33;99.66
39681;BME280;26327;42.550;23.120;2023-07-13T01:59:08;93179.41;;;19.86;98.83
39681;BME280;26327;42.550;23.120;2023-07-13T02:01:33;93162.63;;;19.45;99.24
39681;BME280;26327;42.550;23.120;2023-07-13T02:03:59;93121.28;;;19.15;99.16
39681;BME280;26327;42.550;23.120;2023-07-13T02:06:24;93179.88;;;19.83;97.22
39681;BME280;26327;42.550;23.120;2023-07-13T02:08:50;93116.84;;;19.28;97.02
39681;BME280;26327;42.550;23.120;2023-07-13T02:11:15;93188.09;;;19.63;97.31
39681;BME280;26327;42.550;23.120;2023-07-13T02:13:40;93153.78;;;19.39;98.80
39681;BME280;26327;42.550;23.120;2023-07-13T02:16:06;93185.00;;;19.66;100.00
39681;BME280;26327;42.550;23.120;2023-07-13T02:18:32;93098.25;;;18.99;100.00
39681;BME280;26327;42.550;23.120;2023-07-13T02:20:57;93144.44;;;19.67;99.88
39681;BME280;26327;42.550;23.120;2023-07-13T02:23:23;93119.06;;;19.42;100.00
39681;BME280;26327;42.550;23.120;2023-07-13T02:25:48;93173.56;;;19.72;100.00
39681;BME280;26327;42.550;23.120;2023-07-13T02:28:14;93112.03;;;19.36;99.87
39681;BME280;26327;42.550;23.120;2023-07-13T02:30:40;93122.25;;;19.33;97.81
39681;BME280;26327;42.550;23.120;2023-07-13T02:33:05;93175.91;;;19.50;98.69
39681;BME280;26327;42.550;23.120;2023-07-13T02:35:31;93189.88;;;19.50;99.93
39681;BME280;26327;42.550;23.120;2023-07-13T02:37:57;93127.44;;;18.98;100.00
39681;BME280;26327;42.550;23.120;2023-07-13T02:40:22;93183.13;;;19.43;100.00
39681;BME280;26327;42.550;23.120;2023-07-13T02:42:48;93099.50;;;18.97;100.00
39681;BME280;26327;42.550;23.120;2023-07-13T02:45:13;93178.88;;;19.42;100.00
39681;BME280;26327;42.550;23.120;2023-07-13T02:47:41;93187.34;;;19.44;99.43
39681;BME280;26327;42.550;23.120;2023-07-13T02:50:07;93128.28;;;19.10;99.77
39681;BME280;26327;42.550;23.120;2023-07-13T02:52:32;93175.38;;;19.30;100.00
39681;BME280;26327;42.550;23.120;2023-07-13T02:54:58;93158.94;;;19.04;100.00
39681;BME280;26327;42.550;23.120;2023-07-13T02:57:23;93181.19;;;19.20;100.00
39681;BME280;26327;42.550;23.120;2023-07-13T02:59:48;93171.56;;;19.14;100.00
39681;BME280;26327;42.550;23.120;2023-07-13T03:02:15;93186.69;;;19.18;100.00
39681;BME280;26327;42.550;23.120;2023-07-13T03:04:40;93191.03;;;19.13;100.00
39681;BME280;26327;42.550;23.120;2023-07-13T03:07:06;93130.13;;;18.91;100.00
39681;BME280;26327;42.550;23.120;2023-07-13T03:09:33;93194.53;;;19.37;100.00
39681;BME280;26327;42.550;23.120;2023-07-13T03:11:58;93188.44;;;19.25;100.00
39681;BME280;26327;42.550;23.120;2023-07-13T03:14:24;93192.53;;;19.21;100.00
39681;BME280;26327;42.550;23.120;2023-07-13T03:16:50;93125.25;;;18.95;100.00
39681;BME280;26327;42.550;23.120;2023-07-13T03:19:17;93135.13;;;19.11;100.00
39681;BME280;26327;42.550;23.120;2023-07-13T03:21:42;93186.94;;;19.29;100.00
39681;BME280;26327;42.550;23.120;2023-07-13T03:24:08;93160.94;;;19.21;100.00
39681;BME280;26327;42.550;23.120;2023-07-13T03:26:33;93108.28;;;18.91;100.00
39681;BME280;26327;42.550;23.120;2023-07-13T03:28:59;93168.41;;;19.35;100.00
39681;BME280;26327;42.550;23.120;2023-07-13T03:31:26;93190.88;;;19.38;100.00
39681;BME280;26327;42.550;23.120;2023-07-13T03:33:54;93198.34;;;19.41;100.00
39681;BME280;26327;42.550;23.120;2023-07-13T03:36:22;93129.56;;;19.31;99.88
39681;BME280;26327;42.550;23.120;2023-07-13T03:38:50;93104.25;;;19.18;100.00
39681;BME280;26327;42.550;23.120;2023-07-13T03:41:16;93176.06;;;19.67;100.00
39681;BME280;26327;42.550;23.120;2023-07-13T03:43:42;93132.28;;;19.54;100.00
39681;BME280;26327;42.550;23.120;2023-07-13T03:46:08;93068.50;;;19.22;99.48
39681;BME280;26327;42.550;23.120;2023-07-13T03:48:33;93197.44;;;20.12;97.78
39681;BME280;26327;42.550;23.120;2023-07-13T03:50:59;93149.72;;;19.78;96.97
39681;BME280;26327;42.550;23.120;2023-07-13T03:53:25;93197.78;;;20.16;97.77
39681;BME280;26327;42.550;23.120;2023-07-13T03:55:50;93188.97;;;19.98;97.91
39681;BME280;26327;42.550;23.120;2023-07-13T03:58:37;93193.09;;;20.06;99.95
39681;BME280;26327;42.550;23.120;2023-07-13T04:01:04;93126.94;;;19.96;99.21
39681;BME280;26327;42.550;23.120;2023-07-13T04:03:31;93062.03;;;19.83;99.33
39681;BME280;26327;42.550;23.120;2023-07-13T04:05:59;93148.47;;;20.39;97.89
39681;BME280;26327;42.550;23.120;2023-07-13T04:08:35;93184.25;;;20.47;98.69
39681;BME280;26327;42.550;23.120;2023-07-13T04:11:02;93117.25;;;20.13;97.80
39681;BME280;26327;42.550;23.120;2023-07-13T04:13:28;93138.03;;;20.45;97.04
39681;BME280;26327;42.550;23.120;2023-07-13T04:15:54;93193.06;;;21.04;94.91
39681;BME280;26327;42.550;23.120;2023-07-13T04:18:20;93177.59;;;20.96;95.14
39681;BME280;26327;42.550;23.120;2023-07-13T04:20:50;93184.13;;;21.22;94.14
39681;BME280;26327;42.550;23.120;2023-07-13T04:23:18;93193.69;;;21.35;94.03
39681;BME280;26327;42.550;23.120;2023-07-13T04:25:49;93175.38;;;21.05;94.60
39681;BME280;26327;42.550;23.120;2023-07-13T04:28:19;93186.22;;;20.92;96.15
39681;BME280;26327;42.550;23.120;2023-07-13T04:30:45;93135.06;;;20.69;94.98
39681;BME280;26327;42.550;23.120;2023-07-13T04:33:11;93185.81;;;21.12;93.28
39681;BME280;26327;42.550;23.120;2023-07-13T04:35:36;93176.22;;;21.34;92.46
39681;BME280;26327;42.550;23.120;2023-07-13T04:38:02;93119.91;;;21.05;92.00
39681;BME280;26327;42.550;23.120;2023-07-13T04:40:29;93187.81;;;21.78;92.08
39681;BME280;26327;42.550;23.120;2023-07-13T04:42:55;93191.31;;;22.00;91.82
39681;BME280;26327;42.550;23.120;2023-07-13T04:45:21;93188.19;;;21.87;92.82
39681;BME280;26327;42.550;23.120;2023-07-13T04:47:47;93169.47;;;22.05;92.89
39681;BME280;26327;42.550;23.120;2023-07-13T04:50:13;93190.53;;;22.34;92.70
39681;BME280;26327;42.550;23.120;2023-07-13T04:52:46;93147.88;;;21.96;92.61
39681;BME280;26327;42.550;23.120;2023-07-13T04:55:12;93191.41;;;22.61;89.22
39681;BME280;26327;42.550;23.120;2023-07-13T04:57:37;93183.94;;;22.75;88.44
39681;BME280;26327;42.550;23.120;2023-07-13T05:00:04;93206.94;;;22.91;88.65
39681;BME280;26327;42.550;23.120;2023-07-13T05:02:31;93186.09;;;23.00;92.98
39681;BME280;26327;42.550;23.120;2023-07-13T05:04:57;93158.81;;;22.39;95.41
39681;BME280;26327;42.550;23.120;2023-07-13T05:07:23;93200.94;;;22.40;95.88
39681;BME280;26327;42.550;23.120;2023-07-13T05:09:48;93207.41;;;22.49;95.83
39681;BME280;26327;42.550;23.120;2023-07-13T05:12:14;93194.47;;;22.31;95.47
39681;BME280;26327;42.550;23.120;2023-07-13T05:14:39;93155.06;;;22.18;96.52
39681;BME280;26327;42.550;23.120;2023-07-13T05:17:05;93163.91;;;22.07;96.24
39681;BME280;26327;42.550;23.120;2023-07-13T05:19:30;93213.47;;;22.11;96.53
39681;BME280;26327;42.550;23.120;2023-07-13T05:21:56;93157.88;;;21.61;97.35
39681;BME280;26327;42.550;23.120;2023-07-13T05:24:21;93113.25;;;21.02;99.45
39681;BME280;26327;42.550;23.120;2023-07-13T05:26:47;93166.56;;;21.90;98.15
39681;BME280;26327;42.550;23.120;2023-07-13T05:29:12;93201.66;;;22.02;99.11
39681;BME280;26327;42.550;23.120;2023-07-13T05:31:37;93188.66;;;21.67;100.00
39681;BME280;26327;42.550;23.120;2023-07-13T05:34:03;93215.16;;;22.34;100.00
39681;BME280;26327;42.550;23.120;2023-07-13T05:36:28;93168.47;;;22.28;98.95
39681;BME280;26327;42.550;23.120;2023-07-13T05:38:54;93145.94;;;21.92;100.00
39681;BME280;26327;42.550;23.120;2023-07-13T05:41:19;93237.53;;;22.43;100.00
39681;BME280;26327;42.550;23.120;2023-07-13T05:43:45;93224.69;;;22.18;100.00
39681;BME280;26327;42.550;23.120;2023-07-13T05:46:10;93121.66;;;21.45;100.00
39681;BME280;26327;42.550;23.120;2023-07-13T05:48:35;93220.88;;;22.26;100.00
39681;BME280;26327;42.550;23.120;2023-07-13T05:51:01;93215.31;;;22.27;100.00
39681;BME280;26327;42.550;23.120;2023-07-13T05:53:26;93224.28;;;21.93;100.00
39681;BME280;26327;42.550;23.120;2023-07-13T05:55:54;93240.25;;;22.48;100.00
39681;BME280;26327;42.550;23.120;2023-07-13T05:58:19;93241.84;;;22.49;100.00
39681;BME280;26327;42.550;23.120;2023-07-13T06:00:46;93247.91;;;22.67;100.00
39681;BME280;26327;42.550;23.120;2023-07-13T06:03:11;93237.41;;;22.72;100.00
39681;BME280;26327;42.550;23.120;2023-07-13T06:05:38;93234.22;;;22.91;100.00
39681;BME280;26327;42.550;23.120;2023-07-13T06:08:04;93199.91;;;23.23;98.80
39681;BME280;26327;42.550;23.120;2023-07-13T06:10:33;93212.19;;;23.57;96.52
39681;BME280;26327;42.550;23.120;2023-07-13T06:16:20;93197.50;;;23.22;100.00
39681;BME280;26327;42.550;23.120;2023-07-13T06:18:46;93217.38;;;23.46;100.00
39681;BME280;26327;42.550;23.120;2023-07-13T06:21:17;93169.75;;;23.30;99.81
39681;BME280;26327;42.550;23.120;2023-07-13T06:23:43;93204.53;;;23.60;100.00
39681;BME280;26327;42.550;23.120;2023-07-13T06:26:09;93215.16;;;23.92;99.06
39681;BME280;26327;42.550;23.120;2023-07-13T06:28:35;93231.75;;;24.36;95.37
39681;BME280;26327;42.550;23.120;2023-07-13T06:31:01;93199.66;;;24.43;88.67
39681;BME280;26327;42.550;23.120;2023-07-13T06:36:48;93223.56;;;24.90;82.13
39681;BME280;26327;42.550;23.120;2023-07-13T06:42:35;93202.75;;;25.24;76.09
39681;BME280;26327;42.550;23.120;2023-07-13T06:45:01;93230.41;;;25.23;77.11
39681;BME280;26327;42.550;23.120;2023-07-13T06:47:26;93226.78;;;25.55;75.92
39681;BME280;26327;42.550;23.120;2023-07-13T06:49:52;93218.31;;;25.68;80.18
39681;BME280;26327;42.550;23.120;2023-07-13T06:52:17;93212.50;;;26.01;72.06
39681;BME280;26327;42.550;23.120;2023-07-13T06:54:43;93227.41;;;26.38;72.09
39681;BME280;26327;42.550;23.120;2023-07-13T06:57:08;93165.63;;;26.16;70.29
39681;BME280;26327;42.550;23.120;2023-07-13T06:59:34;93214.63;;;26.55;71.01
39681;BME280;26327;42.550;23.120;2023-07-13T07:01:59;93202.91;;;26.36;68.47
39681;BME280;26327;42.550;23.120;2023-07-13T07:04:25;93169.06;;;26.37;69.34
39681;BME280;26327;42.550;23.120;2023-07-13T07:06:50;93161.34;;;26.50;70.07
39681;BME280;26327;42.550;23.120;2023-07-13T07:09:16;93135.25;;;26.37;69.55
39681;BME280;26327;42.550;23.120;2023-07-13T07:11:42;93213.16;;;27.14;67.86
39681;BME280;26327;42.550;23.120;2023-07-13T07:17:28;93208.31;;;27.26;69.66
39681;BME280;26327;42.550;23.120;2023-07-13T07:19:54;93120.13;;;27.02;67.19
39681;BME280;26327;42.550;23.120;2023-07-13T07:22:20;93173.47;;;27.62;66.78
39681;BME280;26327;42.550;23.120;2023-07-13T07:24:46;93159.31;;;27.56;66.61
39681;BME280;26327;42.550;23.120;2023-07-13T07:27:12;93216.75;;;27.98;65.82
39681;BME280;26327;42.550;23.120;2023-07-13T07:29:37;93168.44;;;27.89;64.13
39681;BME280;26327;42.550;23.120;2023-07-13T07:32:02;93233.47;;;28.47;62.46
39681;BME280;26327;42.550;23.120;2023-07-13T07:34:28;93213.19;;;28.46;64.16
39681;BME280;26327;42.550;23.120;2023-07-13T07:36:54;93117.00;;;27.78;62.86
39681;BME280;26327;42.550;23.120;2023-07-13T07:39:19;93190.19;;;28.45;63.52
39681;BME280;26327;42.550;23.120;2023-07-13T07:45:13;93186.31;;;28.91;59.35
39681;BME280;26327;42.550;23.120;2023-07-13T07:47:39;93139.25;;;28.61;62.19
39681;BME280;26327;42.550;23.120;2023-07-13T07:50:05;93157.72;;;28.86;63.83
39681;BME280;26327;42.550;23.120;2023-07-13T07:55:52;93182.59;;;29.10;56.12
39681;BME280;26327;42.550;23.120;2023-07-13T07:58:17;93207.84;;;29.47;58.07
39681;BME280;26327;42.550;23.120;2023-07-13T08:10:39;93147.06;;;29.85;57.22
39681;BME280;26327;42.550;23.120;2023-07-13T08:16:26;93181.25;;;30.26;54.51
39681;BME280;26327;42.550;23.120;2023-07-13T08:18:52;93180.81;;;30.37;55.74
39681;BME280;26327;42.550;23.120;2023-07-13T08:21:25;93125.22;;;30.29;53.57
39681;BME280;26327;42.550;23.120;2023-07-13T08:23:51;93173.00;;;30.55;54.21
39681;BME280;26327;42.550;23.120;2023-07-13T08:26:16;93163.72;;;30.66;54.50
39681;BME280;26327;42.550;23.120;2023-07-13T08:32:05;93106.47;;;30.57;50.98
39681;BME280;26327;42.550;23.120;2023-07-13T08:37:53;93062.75;;;30.43;50.52
39681;BME280;26327;42.550;23.120;2023-07-13T08:40:24;93185.31;;;31.16;50.59
39681;BME280;26327;42.550;23.120;2023-07-13T08:42:57;93156.97;;;31.10;48.86
39681;BME280;26327;42.550;23.120;2023-07-13T08:47:54;93127.66;;;31.27;51.86
39681;BME280;26327;42.550;23.120;2023-07-13T08:50:31;93151.56;;;31.51;50.72
39681;BME280;26327;42.550;23.120;2023-07-13T08:53:00;93164.50;;;31.49;50.96
39681;BME280;26327;42.550;23.120;2023-07-13T08:55:31;93101.63;;;30.73;49.10
39681;BME280;26327;42.550;23.120;2023-07-13T08:58:11;93169.41;;;31.33;50.60
39681;BME280;26327;42.550;23.120;2023-07-13T09:03:38;93168.06;;;31.58;54.23
39681;BME280;26327;42.550;23.120;2023-07-13T09:06:09;93121.28;;;31.37;52.35
39681;BME280;26327;42.550;23.120;2023-07-13T09:08:47;93184.75;;;31.69;49.02
39681;BME280;26327;42.550;23.120;2023-07-13T09:16:46;93129.63;;;31.35;47.30
39681;BME280;26327;42.550;23.120;2023-07-13T09:19:20;93165.47;;;31.67;49.92
39681;BME280;26327;42.550;23.120;2023-07-13T09:21:47;93160.53;;;31.74;49.10
39681;BME280;26327;42.550;23.120;2023-07-13T09:24:28;93187.16;;;31.84;49.99
39681;BME280;26327;42.550;23.120;2023-07-13T09:26:56;93177.91;;;31.76;48.98
39681;BME280;26327;42.550;23.120;2023-07-13T09:29:32;93196.75;;;31.99;45.65
39681;BME280;26327;42.550;23.120;2023-07-13T09:32:03;93139.66;;;31.43;43.58
39681;BME280;26327;42.550;23.120;2023-07-13T09:34:29;93130.09;;;31.51;46.75
39681;BME280;26327;42.550;23.120;2023-07-13T09:36:57;93119.63;;;31.27;48.54
39681;BME280;26327;42.550;23.120;2023-07-13T09:42:45;93204.19;;;32.38;46.28
39681;BME280;26327;42.550;23.120;2023-07-13T09:45:17;93157.47;;;32.25;45.87
39681;BME280;26327;42.550;23.120;2023-07-13T09:47:58;93173.16;;;32.32;44.12
39681;BME280;26327;42.550;23.120;2023-07-13T09:53:46;93176.56;;;32.46;43.60
39681;BME280;26327;42.550;23.120;2023-07-13T09:56:28;93168.81;;;32.75;44.10
39681;BME280;26327;42.550;23.120;2023-07-13T09:58:55;93091.06;;;32.34;46.29
39681;BME280;26327;42.550;23.120;2023-07-13T10:01:37;93136.03;;;32.42;49.23
39681;BME280;26327;42.550;23.120;2023-07-13T10:04:13;93178.34;;;33.12;44.83
39681;BME280;26327;42.550;23.120;2023-07-13T10:06:40;93136.75;;;32.88;41.19
39681;BME280;26327;42.550;23.120;2023-07-13T10:09:09;93148.78;;;32.90;45.66
39681;BME280;26327;42.550;23.120;2023-07-13T10:14:41;93160.00;;;33.23;44.53
39681;BME280;26327;42.550;23.120;2023-07-13T10:17:10;93125.38;;;32.99;45.72
39681;BME280;26327;42.550;23.120;2023-07-13T10:19:38;93144.44;;;33.11;43.23
39681;BME280;26327;42.550;23.120;2023-07-13T10:22:36;93158.50;;;33.57;44.60
39681;BME280;26327;42.550;23.120;2023-07-13T10:25:13;93147.53;;;33.36;44.15
39681;BME280;26327;42.550;23.120;2023-07-13T10:37:27;93099.38;;;32.86;46.88
39681;BME280;26327;42.550;23.120;2023-07-13T10:39:55;93095.47;;;33.09;46.69
39681;BME280;26327;42.550;23.120;2023-07-13T10:42:34;93040.75;;;32.74;42.17
39681;BME280;26327;42.550;23.120;2023-07-13T10:45:00;93070.28;;;33.05;46.82
39681;BME280;26327;42.550;23.120;2023-07-13T10:47:26;93128.97;;;33.26;42.21
39681;BME280;26327;42.550;23.120;2023-07-13T10:49:56;93144.69;;;33.49;43.39
39681;BME280;26327;42.550;23.120;2023-07-13T10:56:02;93139.09;;;33.20;46.27
39681;BME280;26327;42.550;23.120;2023-07-13T10:58:41;93131.72;;;32.95;46.68
39681;BME280;26327;42.550;23.120;2023-07-13T11:01:11;93093.56;;;32.62;46.42
39681;BME280;26327;42.550;23.120;2023-07-13T11:04:01;93130.63;;;33.04;44.01
39681;BME280;26327;42.550;23.120;2023-07-13T11:06:30;93138.25;;;33.11;43.43
39681;BME280;26327;42.550;23.120;2023-07-13T11:11:44;93059.06;;;32.64;46.83
39681;BME280;26327;42.550;23.120;2023-07-13T11:22:52;93086.72;;;32.86;43.71
39681;BME280;26327;42.550;23.120;2023-07-13T11:27:52;92989.34;;;32.28;42.56
39681;BME280;26327;42.550;23.120;2023-07-13T11:33:14;93087.59;;;33.22;43.25
39681;BME280;26327;42.550;23.120;2023-07-13T11:38:24;93091.69;;;33.10;42.43
39681;BME280;26327;42.550;23.120;2023-07-13T11:44:18;93087.59;;;33.13;44.65
39681;BME280;26327;42.550;23.120;2023-07-13T11:46:55;93086.69;;;33.43;42.00
39681;BME280;26327;42.550;23.120;2023-07-13T11:49:23;93071.50;;;33.30;42.44
39681;BME280;26327;42.550;23.120;2023-07-13T11:58:33;93081.13;;;33.23;42.75
39681;BME280;26327;42.550;23.120;2023-07-13T12:01:01;93037.25;;;33.22;41.18
39681;BME280;26327;42.550;23.120;2023-07-13T12:03:30;93067.31;;;33.15;44.06
39681;BME280;26327;42.550;23.120;2023-07-13T12:06:05;93072.28;;;33.57;46.29
39681;BME280;26327;42.550;23.120;2023-07-13T12:08:39;93071.66;;;33.42;43.91
39681;BME280;26327;42.550;23.120;2023-07-13T12:14:27;93081.16;;;33.31;41.36
39681;BME280;26327;42.550;23.120;2023-07-13T12:16:52;93040.38;;;33.07;43.08
39681;BME280;26327;42.550;23.120;2023-07-13T12:19:28;92994.59;;;32.90;40.65
39681;BME280;26327;42.550;23.120;2023-07-13T12:21:58;93057.19;;;33.30;40.41
39681;BME280;26327;42.550;23.120;2023-07-13T12:24:27;93050.88;;;33.26;40.84
39681;BME280;26327;42.550;23.120;2023-07-13T12:27:03;93059.28;;;33.50;41.92
39681;BME280;26327;42.550;23.120;2023-07-13T12:29:30;93030.94;;;33.35;41.55
39681;BME280;26327;42.550;23.120;2023-07-13T12:31:56;92949.75;;;32.76;37.81
39681;BME280;26327;42.550;23.120;2023-07-13T12:34:24;93040.28;;;33.64;40.75
39681;BME280;26327;42.550;23.120;2023-07-13T12:40:20;93013.31;;;33.29;40.59
39681;BME280;26327;42.550;23.120;2023-07-13T12:42:48;93035.53;;;33.35;38.32
39681;BME280;26327;42.550;23.120;2023-07-13T12:45:25;92996.19;;;33.08;41.08
39681;BME280;26327;42.550;23.120;2023-07-13T12:48:03;93031.72;;;33.36;39.35
39681;BME280;26327;42.550;23.120;2023-07-13T12:50:41;92995.69;;;32.97;38.18
39681;BME280;26327;42.550;23.120;2023-07-13T12:53:13;93017.88;;;33.03;39.36
39681;BME280;26327;42.550;23.120;2023-07-13T12:55:52;92953.44;;;32.98;42.34
39681;BME280;26327;42.550;23.120;2023-07-13T12:58:46;93021.75;;;33.36;46.25
39681;BME280;26327;42.550;23.120;2023-07-13T13:01:14;93001.16;;;33.32;43.09
39681;BME280;26327;42.550;23.120;2023-07-13T13:03:45;93009.38;;;33.35;44.89
39681;BME280;26327;42.550;23.120;2023-07-13T13:08:51;92997.34;;;33.33;38.67
39681;BME280;26327;42.550;23.120;2023-07-13T13:11:17;93011.59;;;33.42;41.10
39681;BME280;26327;42.550;23.120;2023-07-13T13:17:24;92991.47;;;33.22;38.73
39681;BME280;26327;42.550;23.120;2023-07-13T13:19:52;92947.72;;;32.91;40.91
39681;BME280;26327;42.550;23.120;2023-07-13T13:22:19;92958.72;;;32.63;40.72
39681;BME280;26327;42.550;23.120;2023-07-13T13:24:45;92949.31;;;32.83;43.12
39681;BME280;26327;42.550;23.120;2023-07-13T13:27:18;92939.66;;;32.91;44.33
39681;BME280;26327;42.550;23.120;2023-07-13T13:29:45;92944.72;;;33.09;38.72
39681;BME280;26327;42.550;23.120;2023-07-13T13:32:14;92918.75;;;32.79;40.74
39681;BME280;26327;42.550;23.120;2023-07-13T13:34:40;92917.50;;;32.85;40.34
39681;BME280;26327;42.550;23.120;2023-07-13T13:37:23;92916.81;;;32.71;43.30
39681;BME280;26327;42.550;23.120;2023-07-13T13:43:26;92925.06;;;32.74;40.66
39681;BME280;26327;42.550;23.120;2023-07-13T13:45:53;92992.38;;;33.00;42.21
39681;BME280;26327;42.550;23.120;2023-07-13T13:51:23;92926.63;;;32.67;42.71
39681;BME280;26327;42.550;23.120;2023-07-13T13:53:50;92949.59;;;32.73;41.54
39681;BME280;26327;42.550;23.120;2023-07-13T13:56:18;92989.22;;;33.07;41.37
39681;BME280;26327;42.550;23.120;2023-07-13T13:58:44;92987.66;;;33.23;43.33
39681;BME280;26327;42.550;23.120;2023-07-13T14:01:27;92985.88;;;33.01;42.22
39681;BME280;26327;42.550;23.120;2023-07-13T14:03:54;92908.75;;;32.71;43.08
39681;BME280;26327;42.550;23.120;2023-07-13T14:09:41;92921.94;;;32.90;45.78
39681;BME280;26327;42.550;23.120;2023-07-13T14:12:09;92983.53;;;33.17;40.36
39681;BME280;26327;42.550;23.120;2023-07-13T14:17:59;92927.63;;;32.88;44.72
39681;BME280;26327;42.550;23.120;2023-07-13T14:20:25;92915.56;;;32.77;43.50
39681;BME280;26327;42.550;23.120;2023-07-13T14:22:52;92930.72;;;32.55;40.77
39681;BME280;26327;42.550;23.120;2023-07-13T14:25:19;92981.78;;;33.04;40.41
39681;BME280;26327;42.550;23.120;2023-07-13T14:31:06;92939.66;;;32.91;40.95
39681;BME280;26327;42.550;23.120;2023-07-13T14:36:53;92927.16;;;33.03;44.33
39681;BME280;26327;42.550;23.120;2023-07-13T14:39:24;92943.44;;;33.07;42.75
39681;BME280;26327;42.550;23.120;2023-07-13T14:45:15;92967.19;;;33.05;43.37
39681;BME280;26327;42.550;23.120;2023-07-13T14:47:42;92971.31;;;33.02;44.43
39681;BME280;26327;42.550;23.120;2023-07-13T14:53:30;92959.13;;;33.05;41.34
39681;BME280;26327;42.550;23.120;2023-07-13T14:55:55;92912.72;;;32.73;43.64
39681;BME280;26327;42.550;23.120;2023-07-13T14:58:21;92971.78;;;32.96;43.79
39681;BME280;26327;42.550;23.120;2023-07-13T15:00:46;92953.13;;;32.91;47.15
39681;BME280;26327;42.550;23.120;2023-07-13T15:03:20;92938.03;;;32.72;46.52
39681;BME280;26327;42.550;23.120;2023-07-13T15:05:49;92931.81;;;32.63;44.56
39681;BME280;26327;42.550;23.120;2023-07-13T15:08:16;92967.78;;;32.76;43.85
39681;BME280;26327;42.550;23.120;2023-07-13T15:10:41;92947.81;;;32.60;45.38
39681;BME280;26327;42.550;23.120;2023-07-13T15:13:16;92971.78;;;32.78;43.30
39681;BME280;26327;42.550;23.120;2023-07-13T15:15:51;92966.56;;;32.82;44.20
39681;BME280;26327;42.550;23.120;2023-07-13T15:18:20;92859.41;;;32.10;45.25
39681;BME280;26327;42.550;23.120;2023-07-13T15:20:47;92963.25;;;32.85;46.41
39681;BME280;26327;42.550;23.120;2023-07-13T15:23:48;92976.84;;;32.89;46.45
39681;BME280;26327;42.550;23.120;2023-07-13T15:29:35;92900.25;;;32.20;46.01